sensor_id;sensor_type;location;lat;lon;timestamp;temperature;humidity
69281;SHT31;56392;51.082;17.080;2023-05-07T00:04:53;10.55;78.58
69281;SHT31;56392;51.082;17.080;2023-05-07T00:10:17;10.50;78.63
69281;SHT31;56392;51.082;17.080;2023-05-07T00:15:41;10.52;78.48
69281;SHT31;56392;51.082;17.080;2023-05-07T00:21:04;10.53;78.48
69281;SHT31;56392;51.082;17.080;2023-05-07T00:26:28;10.50;78.54
69281;SHT31;56392;51.082;17.080;2023-05-07T00:31:52;10.49;78.59
69281;SHT31;56392;51.082;17.080;2023-05-07T00:37:16;10.46;78.52
69281;SHT31;56392;51.082;17.080;2023-05-07T00:42:39;10.45;78.49
69281;SHT31;56392;51.082;17.080;2023-05-07T00:48:03;10.46;78.60
69281;SHT31;56392;51.082;17.080;2023-05-07T00:53:27;10.43;78.64
69281;SHT31;56392;51.082;17.080;2023-05-07T00:58:50;10.43;78.66
69281;SHT31;56392;51.082;17.080;2023-05-07T01:04:14;10.39;78.48
69281;SHT31;56392;51.082;17.080;2023-05-07T01:09:38;10.36;78.57
69281;SHT31;56392;51.082;17.080;2023-05-07T01:15:02;10.36;78.67
69281;SHT31;56392;51.082;17.080;2023-05-07T01:20:28;10.37;78.59
69281;SHT31;56392;51.082;17.080;2023-05-07T01:25:53;10.43;78.61
69281;SHT31;56392;51.082;17.080;2023-05-07T01:31:16;10.42;78.61
69281;SHT31;56392;51.082;17.080;2023-05-07T01:36:42;10.40;78.86
69281;SHT31;56392;51.082;17.080;2023-05-07T01:42:07;10.35;79.09
69281;SHT31;56392;51.082;17.080;2023-05-07T01:47:30;10.32;79.26
69281;SHT31;56392;51.082;17.080;2023-05-07T01:52:53;10.26;79.22
69281;SHT31;56392;51.082;17.080;2023-05-07T01:58:18;10.22;79.31
69281;SHT31;56392;51.082;17.080;2023-05-07T02:03:41;10.16;79.21
69281;SHT31;56392;51.082;17.080;2023-05-07T02:09:04;10.10;79.30
69281;SHT31;56392;51.082;17.080;2023-05-07T02:14:29;10.16;79.38
69281;SHT31;56392;51.082;17.080;2023-05-07T02:19:52;10.15;79.20
69281;SHT31;56392;51.082;17.080;2023-05-07T02:25:15;10.08;79.10
69281;SHT31;56392;51.082;17.080;2023-05-07T02:30:39;10.05;78.93
69281;SHT31;56392;51.082;17.080;2023-05-07T02:36:06;10.10;78.85
69281;SHT31;56392;51.082;17.080;2023-05-07T02:41:29;10.03;78.74
69281;SHT31;56392;51.082;17.080;2023-05-07T02:46:54;10.06;78.65
69281;SHT31;56392;51.082;17.080;2023-05-07T02:52:17;10.05;78.62
69281;SHT31;56392;51.082;17.080;2023-05-07T02:57:40;10.02;78.39
69281;SHT31;56392;51.082;17.080;2023-05-07T03:03:05;9.96;78.32
69281;SHT31;56392;51.082;17.080;2023-05-07T03:08:28;9.89;78.35
69281;SHT31;56392;51.082;17.080;2023-05-07T03:13:51;9.86;78.30
69281;SHT31;56392;51.082;17.080;2023-05-07T03:19:15;9.85;78.27
69281;SHT31;56392;51.082;17.080;2023-05-07T03:24:38;9.88;78.41
69281;SHT31;56392;51.082;17.080;2023-05-07T03:30:01;9.88;78.34
69281;SHT31;56392;51.082;17.080;2023-05-07T03:35:26;9.89;78.27
69281;SHT31;56392;51.082;17.080;2023-05-07T03:40:49;9.85;78.06
69281;SHT31;56392;51.082;17.080;2023-05-07T03:46:12;9.82;78.05
69281;SHT31;56392;51.082;17.080;2023-05-07T03:51:36;9.86;78.06
69281;SHT31;56392;51.082;17.080;2023-05-07T03:56:59;9.86;78.03
69281;SHT31;56392;51.082;17.080;2023-05-07T04:02:23;9.88;77.82
69281;SHT31;56392;51.082;17.080;2023-05-07T04:07:47;9.81;77.75
69281;SHT31;56392;51.082;17.080;2023-05-07T04:13:10;9.77;77.73
69281;SHT31;56392;51.082;17.080;2023-05-07T04:18:33;9.70;77.70
69281;SHT31;56392;51.082;17.080;2023-05-07T04:23:58;9.78;77.96
69281;SHT31;56392;51.082;17.080;2023-05-07T04:29:21;9.79;77.74
69281;SHT31;56392;51.082;17.080;2023-05-07T04:34:44;9.79;77.61
69281;SHT31;56392;51.082;17.080;2023-05-07T04:40:09;9.75;77.50
69281;SHT31;56392;51.082;17.080;2023-05-07T04:45:32;9.73;77.71
69281;SHT31;56392;51.082;17.080;2023-05-07T04:50:55;9.73;77.79
69281;SHT31;56392;51.082;17.080;2023-05-07T04:56:20;9.73;78.03
69281;SHT31;56392;51.082;17.080;2023-05-07T05:01:43;9.79;78.00
69281;SHT31;56392;51.082;17.080;2023-05-07T05:07:06;9.78;77.78
69281;SHT31;56392;51.082;17.080;2023-05-07T05:12:30;9.86;77.95
69281;SHT31;56392;51.082;17.080;2023-05-07T05:17:53;9.86;77.55
69281;SHT31;56392;51.082;17.080;2023-05-07T05:23:16;9.88;77.49
69281;SHT31;56392;51.082;17.080;2023-05-07T05:28:41;9.85;77.63
69281;SHT31;56392;51.082;17.080;2023-05-07T05:34:04;9.88;77.46
69281;SHT31;56392;51.082;17.080;2023-05-07T05:39:27;9.82;77.39
69281;SHT31;56392;51.082;17.080;2023-05-07T05:44:51;9.84;77.59
69281;SHT31;56392;51.082;17.080;2023-05-07T05:50:14;9.84;77.42
69281;SHT31;56392;51.082;17.080;2023-05-07T05:55:37;9.96;77.73
69281;SHT31;56392;51.082;17.080;2023-05-07T06:01:02;10.02;77.16
69281;SHT31;56392;51.082;17.080;2023-05-07T06:06:25;10.02;76.81
69281;SHT31;56392;51.082;17.080;2023-05-07T06:11:48;10.06;77.02
69281;SHT31;56392;51.082;17.080;2023-05-07T06:17:13;10.05;76.39
69281;SHT31;56392;51.082;17.080;2023-05-07T06:22:36;9.99;76.26
69281;SHT31;56392;51.082;17.080;2023-05-07T06:27:59;9.98;76.09
69281;SHT31;56392;51.082;17.080;2023-05-07T06:33:23;9.84;74.77
69281;SHT31;56392;51.082;17.080;2023-05-07T06:38:46;9.89;75.51
69281;SHT31;56392;51.082;17.080;2023-05-07T06:44:09;9.95;74.96
69281;SHT31;56392;51.082;17.080;2023-05-07T06:49:34;9.86;75.31
69281;SHT31;56392;51.082;17.080;2023-05-07T06:54:57;9.78;75.19
69281;SHT31;56392;51.082;17.080;2023-05-07T07:00:20;9.71;75.03
69281;SHT31;56392;51.082;17.080;2023-05-07T07:05:44;9.67;74.59
69281;SHT31;56392;51.082;17.080;2023-05-07T07:11:08;9.71;74.37
69281;SHT31;56392;51.082;17.080;2023-05-07T07:16:31;9.62;74.32
69281;SHT31;56392;51.082;17.080;2023-05-07T07:21:55;9.67;74.34
69281;SHT31;56392;51.082;17.080;2023-05-07T07:27:18;9.74;74.49
69281;SHT31;56392;51.082;17.080;2023-05-07T07:32:41;9.82;74.22
69281;SHT31;56392;51.082;17.080;2023-05-07T07:38:06;9.92;74.08
69281;SHT31;56392;51.082;17.080;2023-05-07T07:43:29;9.96;73.94
69281;SHT31;56392;51.082;17.080;2023-05-07T07:48:52;9.98;73.41
69281;SHT31;56392;51.082;17.080;2023-05-07T07:54:19;9.96;73.80
69281;SHT31;56392;51.082;17.080;2023-05-07T07:59:42;9.95;73.92
69281;SHT31;56392;51.082;17.080;2023-05-07T08:05:06;10.01;74.31
69281;SHT31;56392;51.082;17.080;2023-05-07T08:10:30;9.89;73.71
69281;SHT31;56392;51.082;17.080;2023-05-07T08:15:56;9.88;73.89
69281;SHT31;56392;51.082;17.080;2023-05-07T08:21:19;9.94;73.68
69281;SHT31;56392;51.082;17.080;2023-05-07T08:26:43;9.79;73.15
69281;SHT31;56392;51.082;17.080;2023-05-07T08:32:06;9.77;73.51
69281;SHT31;56392;51.082;17.080;2023-05-07T08:37:29;9.84;73.44
69281;SHT31;56392;51.082;17.080;2023-05-07T08:42:54;9.84;73.17
69281;SHT31;56392;51.082;17.080;2023-05-07T08:48:21;9.89;73.44
69281;SHT31;56392;51.082;17.080;2023-05-07T08:53:45;9.85;73.14
69281;SHT31;56392;51.082;17.080;2023-05-07T08:59:11;9.85;73.22
69281;SHT31;56392;51.082;17.080;2023-05-07T09:04:34;9.78;73.39
69281;SHT31;56392;51.082;17.080;2023-05-07T09:09:57;9.86;73.53
69281;SHT31;56392;51.082;17.080;2023-05-07T09:15:22;9.88;73.21
69281;SHT31;56392;51.082;17.080;2023-05-07T09:20:45;9.98;72.98
69281;SHT31;56392;51.082;17.080;2023-05-07T09:26:08;9.96;72.41
69281;SHT31;56392;51.082;17.080;2023-05-07T09:31:36;9.96;72.19
69281;SHT31;56392;51.082;17.080;2023-05-07T09:37:01;10.02;72.59
69281;SHT31;56392;51.082;17.080;2023-05-07T09:42:24;10.05;72.50
69281;SHT31;56392;51.082;17.080;2023-05-07T09:47:49;9.98;72.55
69281;SHT31;56392;51.082;17.080;2023-05-07T09:53:17;10.01;72.96
69281;SHT31;56392;51.082;17.080;2023-05-07T09:58:41;10.13;72.94
69281;SHT31;56392;51.082;17.080;2023-05-07T10:04:06;10.25;72.55
69281;SHT31;56392;51.082;17.080;2023-05-07T10:09:29;10.37;72.25
69281;SHT31;56392;51.082;17.080;2023-05-07T10:14:54;10.50;71.78
69281;SHT31;56392;51.082;17.080;2023-05-07T10:20:19;10.53;71.22
69281;SHT31;56392;51.082;17.080;2023-05-07T10:25:42;10.66;70.91
69281;SHT31;56392;51.082;17.080;2023-05-07T10:31:15;10.73;70.58
69281;SHT31;56392;51.082;17.080;2023-05-07T10:36:44;10.80;70.23
69281;SHT31;56392;51.082;17.080;2023-05-07T10:42:08;10.81;70.15
69281;SHT31;56392;51.082;17.080;2023-05-07T10:47:32;10.83;69.68
69281;SHT31;56392;51.082;17.080;2023-05-07T10:53:23;10.84;69.87
69281;SHT31;56392;51.082;17.080;2023-05-07T10:58:50;10.81;69.54
69281;SHT31;56392;51.082;17.080;2023-05-07T11:04:14;10.74;69.21
69281;SHT31;56392;51.082;17.080;2023-05-07T11:09:56;10.77;69.00
69281;SHT31;56392;51.082;17.080;2023-05-07T11:15:39;10.84;69.21
69281;SHT31;56392;51.082;17.080;2023-05-07T11:21:03;11.00;69.05
69281;SHT31;56392;51.082;17.080;2023-05-07T11:26:29;11.10;68.84
69281;SHT31;56392;51.082;17.080;2023-05-07T11:31:55;11.01;68.74
69281;SHT31;56392;51.082;17.080;2023-05-07T11:37:19;11.03;69.15
69281;SHT31;56392;51.082;17.080;2023-05-07T11:42:44;11.10;69.02
69281;SHT31;56392;51.082;17.080;2023-05-07T11:48:07;11.08;69.07
69281;SHT31;56392;51.082;17.080;2023-05-07T11:53:35;11.10;68.41
69281;SHT31;56392;51.082;17.080;2023-05-07T11:59:00;11.08;68.04
69281;SHT31;56392;51.082;17.080;2023-05-07T12:04:23;11.07;68.02
69281;SHT31;56392;51.082;17.080;2023-05-07T12:09:47;11.07;68.62
69281;SHT31;56392;51.082;17.080;2023-05-07T12:15:15;11.10;67.91
69281;SHT31;56392;51.082;17.080;2023-05-07T12:20:39;11.10;67.92
69281;SHT31;56392;51.082;17.080;2023-05-07T12:26:02;11.12;67.78
69281;SHT31;56392;51.082;17.080;2023-05-07T12:31:27;11.18;67.62
69281;SHT31;56392;51.082;17.080;2023-05-07T12:36:50;11.19;67.24
69281;SHT31;56392;51.082;17.080;2023-05-07T12:42:15;11.21;67.62
69281;SHT31;56392;51.082;17.080;2023-05-07T12:47:43;11.07;67.71
69281;SHT31;56392;51.082;17.080;2023-05-07T12:53:08;11.18;68.54
69281;SHT31;56392;51.082;17.080;2023-05-07T12:58:34;11.18;67.23
69281;SHT31;56392;51.082;17.080;2023-05-07T13:04:03;11.17;66.37
69281;SHT31;56392;51.082;17.080;2023-05-07T13:09:27;11.21;66.41
69281;SHT31;56392;51.082;17.080;2023-05-07T13:14:50;11.28;66.74
69281;SHT31;56392;51.082;17.080;2023-05-07T13:20:15;11.32;67.27
69281;SHT31;56392;51.082;17.080;2023-05-07T13:25:38;11.28;67.17
69281;SHT31;56392;51.082;17.080;2023-05-07T13:31:01;11.22;66.75
69281;SHT31;56392;51.082;17.080;2023-05-07T13:36:25;11.18;66.57
69281;SHT31;56392;51.082;17.080;2023-05-07T13:41:50;11.22;66.49
69281;SHT31;56392;51.082;17.080;2023-05-07T13:47:13;11.19;65.58
69281;SHT31;56392;51.082;17.080;2023-05-07T13:52:37;11.21;65.29
69281;SHT31;56392;51.082;17.080;2023-05-07T13:58:02;11.21;65.45
69281;SHT31;56392;51.082;17.080;2023-05-07T14:03:25;11.15;65.83
69281;SHT31;56392;51.082;17.080;2023-05-07T14:08:50;11.14;65.95
69281;SHT31;56392;51.082;17.080;2023-05-07T14:14:13;11.07;65.80
69281;SHT31;56392;51.082;17.080;2023-05-07T14:19:36;11.05;65.60
69281;SHT31;56392;51.082;17.080;2023-05-07T14:25:00;11.11;65.69
69281;SHT31;56392;51.082;17.080;2023-05-07T14:30:23;11.11;65.70
69281;SHT31;56392;51.082;17.080;2023-05-07T14:35:46;11.14;65.57
69281;SHT31;56392;51.082;17.080;2023-05-07T14:41:12;11.10;65.50
69281;SHT31;56392;51.082;17.080;2023-05-07T14:46:35;11.08;65.69
69281;SHT31;56392;51.082;17.080;2023-05-07T14:51:58;11.08;65.83
69281;SHT31;56392;51.082;17.080;2023-05-07T14:57:23;11.07;65.79
69281;SHT31;56392;51.082;17.080;2023-05-07T15:02:46;11.10;65.93
69281;SHT31;56392;51.082;17.080;2023-05-07T15:08:09;11.05;66.10
69281;SHT31;56392;51.082;17.080;2023-05-07T15:13:34;11.03;65.85
69281;SHT31;56392;51.082;17.080;2023-05-07T15:18:56;11.04;66.25
69281;SHT31;56392;51.082;17.080;2023-05-07T15:24:19;11.05;66.15
69281;SHT31;56392;51.082;17.080;2023-05-07T15:29:44;11.11;66.49
69281;SHT31;56392;51.082;17.080;2023-05-07T15:35:08;11.15;66.60
69281;SHT31;56392;51.082;17.080;2023-05-07T15:40:31;11.21;66.90
69281;SHT31;56392;51.082;17.080;2023-05-07T15:45:58;11.21;67.01
69281;SHT31;56392;51.082;17.080;2023-05-07T15:51:22;11.21;66.83
69281;SHT31;56392;51.082;17.080;2023-05-07T15:56:44;11.25;67.04
69281;SHT31;56392;51.082;17.080;2023-05-07T16:02:09;11.22;67.41
69281;SHT31;56392;51.082;17.080;2023-05-07T16:07:32;11.18;67.56
69281;SHT31;56392;51.082;17.080;2023-05-07T16:12:56;11.22;67.50
69281;SHT31;56392;51.082;17.080;2023-05-07T16:18:21;11.12;67.13
69281;SHT31;56392;51.082;17.080;2023-05-07T16:23:44;11.15;67.26
69281;SHT31;56392;51.082;17.080;2023-05-07T16:29:07;11.03;66.67
69281;SHT31;56392;51.082;17.080;2023-05-07T16:34:32;11.03;66.81
69281;SHT31;56392;51.082;17.080;2023-05-07T16:39:55;11.03;66.78
69281;SHT31;56392;51.082;17.080;2023-05-07T16:45:20;10.96;66.74
69281;SHT31;56392;51.082;17.080;2023-05-07T16:50:45;10.98;66.95
69281;SHT31;56392;51.082;17.080;2023-05-07T16:56:08;11.01;67.15
69281;SHT31;56392;51.082;17.080;2023-05-07T17:01:31;11.03;66.91
69281;SHT31;56392;51.082;17.080;2023-05-07T17:06:55;11.04;67.30
69281;SHT31;56392;51.082;17.080;2023-05-07T17:12:18;10.98;67.02
69281;SHT31;56392;51.082;17.080;2023-05-07T17:17:41;11.03;67.30
69281;SHT31;56392;51.082;17.080;2023-05-07T17:23:06;11.01;67.29
69281;SHT31;56392;51.082;17.080;2023-05-07T17:28:29;11.00;67.61
69281;SHT31;56392;51.082;17.080;2023-05-07T17:33:52;11.03;67.57
69281;SHT31;56392;51.082;17.080;2023-05-07T17:39:16;11.03;67.89
69281;SHT31;56392;51.082;17.080;2023-05-07T17:44:39;11.11;68.08
69281;SHT31;56392;51.082;17.080;2023-05-07T17:50:03;11.05;67.77
69281;SHT31;56392;51.082;17.080;2023-05-07T17:55:32;11.04;67.76
69281;SHT31;56392;51.082;17.080;2023-05-07T18:01:01;11.00;67.83
69281;SHT31;56392;51.082;17.080;2023-05-07T18:06:24;11.01;67.70
69281;SHT31;56392;51.082;17.080;2023-05-07T18:11:48;10.94;67.58
69281;SHT31;56392;51.082;17.080;2023-05-07T18:17:11;10.90;67.60
69281;SHT31;56392;51.082;17.080;2023-05-07T18:22:34;10.84;67.56
69281;SHT31;56392;51.082;17.080;2023-05-07T18:27:59;10.85;67.31
69281;SHT31;56392;51.082;17.080;2023-05-07T18:33:22;10.80;67.23
69281;SHT31;56392;51.082;17.080;2023-05-07T18:38:45;10.81;67.28
69281;SHT31;56392;51.082;17.080;2023-05-07T18:44:09;10.78;67.23
69281;SHT31;56392;51.082;17.080;2023-05-07T18:49:32;10.80;67.53
69281;SHT31;56392;51.082;17.080;2023-05-07T18:54:55;10.78;67.52
69281;SHT31;56392;51.082;17.080;2023-05-07T19:00:20;10.74;67.17
69281;SHT31;56392;51.082;17.080;2023-05-07T19:05:43;10.71;67.44
69281;SHT31;56392;51.082;17.080;2023-05-07T19:11:06;10.71;67.44
69281;SHT31;56392;51.082;17.080;2023-05-07T19:16:31;10.71;67.25
69281;SHT31;56392;51.082;17.080;2023-05-07T19:21:54;10.66;67.13
69281;SHT31;56392;51.082;17.080;2023-05-07T19:27:17;10.61;66.71
69281;SHT31;56392;51.082;17.080;2023-05-07T19:32:41;10.59;66.67
69281;SHT31;56392;51.082;17.080;2023-05-07T19:38:04;10.53;66.59
69281;SHT31;56392;51.082;17.080;2023-05-07T19:43:29;10.50;66.32
69281;SHT31;56392;51.082;17.080;2023-05-07T19:48:57;10.52;66.04
69281;SHT31;56392;51.082;17.080;2023-05-07T19:54:22;10.47;66.13
69281;SHT31;56392;51.082;17.080;2023-05-07T19:59:45;10.45;65.94
69281;SHT31;56392;51.082;17.080;2023-05-07T20:05:10;10.43;65.97
69281;SHT31;56392;51.082;17.080;2023-05-07T20:10:34;10.40;65.48
69281;SHT31;56392;51.082;17.080;2023-05-07T20:15:58;10.39;64.95
69281;SHT31;56392;51.082;17.080;2023-05-07T20:21:23;10.28;64.97
69281;SHT31;56392;51.082;17.080;2023-05-07T20:26:47;10.29;64.70
69281;SHT31;56392;51.082;17.080;2023-05-07T20:32:10;10.26;64.62
69281;SHT31;56392;51.082;17.080;2023-05-07T20:37:37;10.26;64.40
69281;SHT31;56392;51.082;17.080;2023-05-07T20:43:01;10.19;64.13
69281;SHT31;56392;51.082;17.080;2023-05-07T20:48:25;10.15;64.25
69281;SHT31;56392;51.082;17.080;2023-05-07T20:53:52;10.13;64.44
69281;SHT31;56392;51.082;17.080;2023-05-07T20:59:15;10.16;64.68
69281;SHT31;56392;51.082;17.080;2023-05-07T21:04:38;10.10;64.20
69281;SHT31;56392;51.082;17.080;2023-05-07T21:10:04;9.94;62.82
69281;SHT31;56392;51.082;17.080;2023-05-07T21:15:27;9.79;62.58
69281;SHT31;56392;51.082;17.080;2023-05-07T21:20:50;9.75;62.44
69281;SHT31;56392;51.082;17.080;2023-05-07T21:26:18;9.68;62.57
69281;SHT31;56392;51.082;17.080;2023-05-07T21:31:42;9.64;62.55
69281;SHT31;56392;51.082;17.080;2023-05-07T21:37:05;9.65;62.82
69281;SHT31;56392;51.082;17.080;2023-05-07T21:42:29;9.61;63.15
69281;SHT31;56392;51.082;17.080;2023-05-07T21:47:52;9.59;63.30
69281;SHT31;56392;51.082;17.080;2023-05-07T21:53:15;9.51;63.82
69281;SHT31;56392;51.082;17.080;2023-05-07T21:58:40;9.43;64.80
69281;SHT31;56392;51.082;17.080;2023-05-07T22:04:03;9.28;64.93
69281;SHT31;56392;51.082;17.080;2023-05-07T22:09:26;9.20;65.09
69281;SHT31;56392;51.082;17.080;2023-05-07T22:14:50;9.14;65.11
69281;SHT31;56392;51.082;17.080;2023-05-07T22:20:14;9.09;65.29
69281;SHT31;56392;51.082;17.080;2023-05-07T22:25:37;8.99;65.76
69281;SHT31;56392;51.082;17.080;2023-05-07T22:31:01;8.92;65.92
69281;SHT31;56392;51.082;17.080;2023-05-07T22:36:24;8.80;66.43
69281;SHT31;56392;51.082;17.080;2023-05-07T22:41:47;8.75;66.47
69281;SHT31;56392;51.082;17.080;2023-05-07T22:47:12;8.69;66.92
69281;SHT31;56392;51.082;17.080;2023-05-07T22:52:35;8.56;67.24
69281;SHT31;56392;51.082;17.080;2023-05-07T22:57:58;8.52;67.71
69281;SHT31;56392;51.082;17.080;2023-05-07T23:03:22;8.34;68.36
69281;SHT31;56392;51.082;17.080;2023-05-07T23:08:46;8.15;69.21
69281;SHT31;56392;51.082;17.080;2023-05-07T23:14:08;8.15;68.87
69281;SHT31;56392;51.082;17.080;2023-05-07T23:19:33;8.14;69.02
69281;SHT31;56392;51.082;17.080;2023-05-07T23:24:56;8.05;69.19
69281;SHT31;56392;51.082;17.080;2023-05-07T23:30:19;7.98;69.42
69281;SHT31;56392;51.082;17.080;2023-05-07T23:35:43;7.94;69.78
69281;SHT31;56392;51.082;17.080;2023-05-07T23:41:06;7.87;70.09
69281;SHT31;56392;51.082;17.080;2023-05-07T23:46:29;7.79;70.57
69281;SHT31;56392;51.082;17.080;2023-05-07T23:51:53;7.70;71.21
69281;SHT31;56392;51.082;17.080;2023-05-07T23:57:17;7.61;71.67
